»·PEaware :: N31WS KSAC-KSMX

N31WS :: KSAC-KSMX

FLIGHT INFORMATION

Flight Status: Arrived
Operator: Privately registered:
United States
More flights under this callsign
Pilot: Erik B. (9150)
Aircraft: GATES LEARJET LEARJET 35/36
(LJ35)
More flights by this aircraft type
Origin: KSAC Sacramento Executive
United States
Destination: KSMX Santa Maria Pub/Capt Hancock
United States
More flights between these airports :: More routes between these airports
Route: +
File this flight plan on PilotEdge
Remarks:
Altitude:
(Current/Filed)
0ft
Speed:
(Current/Filed)
0kts
Departed: 08-Jan-18 11:23 AM
Arrived: 08-Jan-18 12:10 PM
Distance/Time
Traveled:
223nm/0:47
Distance/Time
To Go:
Arrived

Flight Plot

Page will automatically refresh every two minutes.

Flight plan parsing failed; only flown route is shown


Map Options




Map Legend


Flown Route
Filed Route
Departure Airport
Arrival Airport
Navaid (VOR, NDB)
Fix

Horizontal Profiles

Position Reports

Time Latitude Longitude Heading Altitude Ground
Speed
08-Jan-18 11:09 38.512617 -121.498558 0 27ft 0kts
08-Jan-18 11:10 38.512619 -121.498558 1 27ft 0kts
08-Jan-18 11:11 38.512760 -121.498513 32 27ft 2kts
08-Jan-18 11:12 38.512526 -121.497967 232 27ft 2kts
08-Jan-18 11:13 38.512409 -121.498532 350 27ft 3kts
08-Jan-18 11:14 38.513487 -121.496965 41 27ft 7kts
08-Jan-18 11:15 38.514408 -121.495685 90 27ft 3kts
08-Jan-18 11:16 38.515334 -121.494197 33 27ft 6kts
08-Jan-18 11:17 38.516431 -121.493288 32 27ft 10kts
08-Jan-18 11:18 38.517128 -121.492714 33 27ft 2kts
08-Jan-18 11:19 38.517420 -121.492475 32 27ft 0kts
08-Jan-18 11:20 38.517745 -121.492209 32 27ft 5kts
08-Jan-18 11:21 38.519027 -121.491142 33 27ft 4kts
08-Jan-18 11:22 38.520247 -121.490111 33 27ft 8kts
08-Jan-18 11:23 38.520916 -121.489101 99 27ft 0kts
08-Jan-18 11:24 38.520916 -121.489097 99 27ft 0kts
08-Jan-18 11:25 38.520915 -121.489093 99 27ft 0kts
08-Jan-18 11:26 38.520915 -121.489090 99 27ft 0kts
08-Jan-18 11:27 38.520838 -121.488511 99 27ft 1kts
08-Jan-18 11:28 38.520505 -121.488036 209 27ft 0kts
08-Jan-18 11:29 38.499037 -121.505696 213 531ft 168kts
08-Jan-18 11:30 38.453806 -121.541722 208 2943ft 198kts
08-Jan-18 11:31 38.402294 -121.520980 145 4302ft 217kts
08-Jan-18 11:32 38.349429 -121.474733 145 5467ft 245kts
08-Jan-18 11:33 38.286058 -121.437579 160 5485ft 242kts
08-Jan-18 11:34 38.225815 -121.414152 164 6048ft 203kts
08-Jan-18 11:35 38.169583 -121.395707 167 8160ft 222kts
08-Jan-18 11:36 38.107849 -121.380254 180 10742ft 227kts
08-Jan-18 11:37 38.045152 -121.370499 162 13193ft 251kts
08-Jan-18 11:38 37.969512 -121.339353 167 15151ft 318kts
08-Jan-18 11:39 37.881887 -121.310759 169 15503ft 336kts
08-Jan-18 11:40 37.791183 -121.283035 169 15504ft 335kts
08-Jan-18 11:41 37.700095 -121.255809 169 15503ft 335kts
08-Jan-18 11:42 37.609414 -121.228982 169 15503ft 335kts
08-Jan-18 11:43 37.518503 -121.202237 169 15504ft 336kts
08-Jan-18 11:44 37.427317 -121.175445 169 15504ft 336kts
08-Jan-18 11:45 37.336304 -121.148669 169 15498ft 336kts
08-Jan-18 11:46 37.244839 -121.121922 169 15497ft 337kts
08-Jan-18 11:47 37.153560 -121.095344 169 15498ft 337kts
08-Jan-18 11:48 37.062207 -121.068856 169 15509ft 337kts
08-Jan-18 11:49 36.970481 -121.042164 169 15497ft 338kts
08-Jan-18 11:50 36.879004 -121.015574 170 15499ft 337kts
08-Jan-18 11:51 36.787826 -120.989235 170 15511ft 335kts
08-Jan-18 11:52 36.696795 -120.963066 170 15511ft 334kts
08-Jan-18 11:53 36.606371 -120.937147 170 15511ft 333kts
08-Jan-18 11:54 36.515578 -120.911114 169 15489ft 334kts
08-Jan-18 11:55 36.424958 -120.885085 170 15490ft 334kts
08-Jan-18 11:56 36.334245 -120.859196 170 15464ft 335kts
08-Jan-18 11:57 36.243161 -120.833315 170 15464ft 335kts
08-Jan-18 11:58 36.152274 -120.807577 170 15463ft 335kts
08-Jan-18 11:59 36.061419 -120.781905 170 15463ft 335kts
08-Jan-18 12:00 35.970103 -120.756169 170 15464ft 336kts
08-Jan-18 12:01 35.879126 -120.730577 170 15464ft 335kts
08-Jan-18 12:02 35.787955 -120.705001 170 15480ft 335kts
08-Jan-18 12:03 35.707215 -120.682353 169 15490ft 335kts
08-Jan-18 12:04 35.616443 -120.656650 169 15502ft 335kts
08-Jan-18 12:05 35.525553 -120.631078 169 14384ft 321kts
08-Jan-18 12:06 35.444419 -120.608296 169 12768ft 282kts
08-Jan-18 12:07 35.370303 -120.587744 168 11162ft 268kts
08-Jan-18 12:08 35.297793 -120.567619 167 9651ft 261kts
08-Jan-18 12:09 35.231619 -120.549255 167 9205ft 235kts
08-Jan-18 12:10 35.164636 -120.530723 168 7389ft 256kts
08-Jan-18 12:11 35.093156 -120.521537 180 5425ft 259kts
08-Jan-18 12:12 35.025571 -120.532239 194 3444ft 242kts
08-Jan-18 12:13 34.968902 -120.532447 153 2977ft 157kts
08-Jan-18 12:14 34.937046 -120.498738 142 1445ft 144kts
08-Jan-18 12:15 34.909512 -120.465810 139 416ft 132kts
08-Jan-18 12:16 34.894854 -120.448299 135 264ft 14kts
08-Jan-18 12:17 34.893748 -120.446971 135 264ft 6kts
08-Jan-18 12:18 34.892834 -120.445946 156 264ft 4kts
08-Jan-18 12:19 34.892197 -120.446563 228 264ft 3kts
08-Jan-18 12:20 34.891512 -120.447194 172 264ft 3kts
08-Jan-18 12:21 34.891137 -120.448346 271 264ft 6kts
08-Jan-18 12:22 34.891131 -120.449806 270 264ft 2kts
08-Jan-18 12:23 34.891131 -120.451655 269 264ft 7kts
08-Jan-18 12:24 34.891135 -120.453428 280 264ft 2kts
08-Jan-18 12:25 34.891349 -120.453688 358 264ft 0kts

Navigation Log

Ident Type
Flight plan parsing failed, navigation log unavailable